Goldengate, Illinois
Current Conditions -  °F | °C
As of 8:55 PM on Friday 19 Dec 2014 (Local Time) from KFWC Reporting Station
Overcast Overcast  
Wind Chill: 33°   Ceiling: 12000
Heat Index: 33°   Visibility: 10mi
Dew Point: 26°   Wind: 3mph
Humidity: 76%   Direction: 50°NE
Pressure: 30.26"   Gusts: NA
Location:  38.361°N, 88.2031°W
Report Text: KFWC 200255Z AUTO 05003KT 10SM OVC120 01/M03 A3026 RMK AO1 T00051032
Loading
Personal Weather Stations






























Interactive Weather Map New forecast layout! Learn more

10-Day Weather Forecast

Advertisements
Track Severe Weather on mobile